Time;durP1;ratioP1;P1;durP2;ratioP2;P2;SDS_P1;SDS_P2;PMS_P1;PMS_P2;Temp;Humidity;BMP_temperature;BMP_pressure;BME280_temperature;BME280_humidity;BME280_pressure;Samples;Min_cycle;Max_cycle;Signal;HPM_P1;HPM_P2
2024/01/17 00:00:56;;;;;;;;;51.67;46.67;;;;;;;;5071044;28;8778;-87
2024/01/17 00:03:26;;;;;;;;;54.33;47.67;;;;;;;;5073967;28;8850;-89
2024/01/17 00:05:53;;;;;;;;;48.33;43.00;;;;;;;;5076253;28;8915;-86
2024/01/17 00:08:23;;;;;;;;;32.33;32.33;;;;;;;;5062330;28;8862;-89
2024/01/17 00:10:51;;;;;;;;;19.00;19.00;;;;;;;;5076069;28;8890;-88
2024/01/17 00:13:18;;;;;;;;;25.33;24.33;;;;;;;;5074491;28;8977;-86
2024/01/17 00:15:45;;;;;;;;;24.33;24.33;;;;;;;;5076302;28;8873;-92
2024/01/17 00:18:13;;;;;;;;;21.67;21.67;;;;;;;;5076061;28;8854;-92
2024/01/17 00:20:42;;;;;;;;;21.33;20.00;;;;;;;;5075789;28;8879;-89
2024/01/17 00:23:09;;;;;;;;;25.00;23.67;;;;;;;;5074251;28;8881;-89
2024/01/17 00:25:36;;;;;;;;;39.33;39.33;;;;;;;;5075799;28;8865;-90
2024/01/17 00:28:04;;;;;;;;;55.00;48.67;;;;;;;;5072928;28;8867;-90
2024/01/17 00:30:31;;;;;;;;;52.00;45.00;;;;;;;;5073658;28;8759;-83
2024/01/17 00:32:58;;;;;;;;;34.00;34.00;;;;;;;;5074832;28;8953;-84
2024/01/17 00:35:26;;;;;;;;;35.00;35.00;;;;;;;;5075302;28;8897;-88
2024/01/17 00:37:54;;;;;;;;;18.67;18.33;;;;;;;;5076724;28;8863;-89
2024/01/17 00:40:24;;;;;;;;;27.67;25.67;;;;;;;;5072543;28;9696;-88
2024/01/17 00:42:52;;;;;;;;;27.33;27.33;;;;;;;;5075755;28;8866;-88
2024/01/17 00:45:19;;;;;;;;;23.33;23.33;;;;;;;;5073330;28;8888;-85
2024/01/17 00:47:46;;;;;;;;;20.67;20.00;;;;;;;;5078352;28;8875;-86
2024/01/17 00:50:14;;;;;;;;;25.67;22.33;;;;;;;;5077768;28;8855;-86
2024/01/17 00:52:41;;;;;;;;;27.00;27.00;;;;;;;;5071028;28;8902;-88
2024/01/17 00:55:11;;;;;;;;;18.00;18.00;;;;;;;;5079165;28;8970;-85
2024/01/17 00:57:38;;;;;;;;;25.00;24.33;;;;;;;;5082703;28;8859;-87
2024/01/17 01:00:08;;;;;;;;;23.67;23.67;;;;;;;;5082238;28;8843;-87
2024/01/17 01:02:35;;;;;;;;;24.33;23.00;;;;;;;;5083073;28;8859;-86
2024/01/17 01:05:03;;;;;;;;;20.33;20.33;;;;;;;;5077381;28;8958;-89
2024/01/17 01:07:30;;;;;;;;;14.00;14.00;;;;;;;;5067185;28;8837;-89
2024/01/17 01:09:59;;;;;;;;;25.00;25.00;;;;;;;;5075543;28;8851;-88
2024/01/17 01:12:28;;;;;;;;;23.33;23.33;;;;;;;;5078624;28;8894;-89
2024/01/17 01:14:55;;;;;;;;;22.00;22.00;;;;;;;;5077153;28;8946;-89
2024/01/17 01:17:22;;;;;;;;;20.67;20.67;;;;;;;;5077315;28;8874;-82
2024/01/17 01:19:50;;;;;;;;;15.33;15.33;;;;;;;;5077947;28;8899;-84
2024/01/17 01:22:17;;;;;;;;;24.00;24.00;;;;;;;;5071606;28;8867;-90
2024/01/17 01:24:44;;;;;;;;;24.00;24.00;;;;;;;;5071892;28;8867;-87
2024/01/17 01:27:11;;;;;;;;;18.00;18.00;;;;;;;;5072056;28;8958;-87
2024/01/17 01:29:40;;;;;;;;;20.33;20.33;;;;;;;;5072067;28;9582;-87
2024/01/17 01:32:08;;;;;;;;;22.00;22.00;;;;;;;;5072123;28;8883;-87
2024/01/17 01:34:35;;;;;;;;;22.67;22.67;;;;;;;;5074590;28;8834;-88
2024/01/17 01:37:03;;;;;;;;;23.33;22.33;;;;;;;;5074179;28;8875;-88
2024/01/17 01:39:30;;;;;;;;;19.00;19.00;;;;;;;;5062497;28;8870;-87
2024/01/17 01:41:57;;;;;;;;;18.00;18.00;;;;;;;;5065804;28;8872;-89
2024/01/17 01:44:25;;;;;;;;;18.67;18.67;;;;;;;;5062755;28;8989;-90
2024/01/17 01:46:54;;;;;;;;;26.67;21.33;;;;;;;;5060655;28;8913;-88
2024/01/17 01:49:21;;;;;;;;;25.00;23.67;;;;;;;;5071108;28;8908;-87
2024/01/17 01:51:50;;;;;;;;;21.33;21.33;;;;;;;;5066917;28;8849;-86
2024/01/17 01:54:19;;;;;;;;;21.67;21.67;;;;;;;;5071792;28;8867;-89
2024/01/17 01:56:47;;;;;;;;;22.00;22.00;;;;;;;;5070278;28;8889;-91
2024/01/17 01:59:17;;;;;;;;;20.33;20.33;;;;;;;;5073592;28;8863;-90
2024/01/17 02:01:44;;;;;;;;;21.33;20.67;;;;;;;;5071321;28;8775;-89
2024/01/17 02:04:13;;;;;;;;;19.33;17.33;;;;;;;;5071147;28;8859;-89
2024/01/17 02:06:42;;;;;;;;;20.00;18.00;;;;;;;;5068589;28;8981;-90
2024/01/17 02:09:09;;;;;;;;;21.00;21.00;;;;;;;;5071676;28;8870;-90
2024/01/17 02:11:38;;;;;;;;;22.67;20.33;;;;;;;;5071594;28;8843;-88
2024/01/17 02:14:05;;;;;;;;;21.33;18.00;;;;;;;;5072030;28;8882;-88
2024/01/17 02:16:33;;;;;;;;;22.00;21.00;;;;;;;;5071769;28;8867;-90
2024/01/17 02:19:01;;;;;;;;;24.67;23.67;;;;;;;;5066228;28;8866;-86
2024/01/17 02:21:30;;;;;;;;;22.67;22.67;;;;;;;;5065868;28;8850;-89
2024/01/17 02:24:14;;;;;;;;;26.33;26.33;;;;;;;;5070980;28;8870;-89
2024/01/17 02:26:42;;;;;;;;;26.33;22.33;;;;;;;;5062489;28;8858;-88
2024/01/17 02:29:09;;;;;;;;;23.67;23.67;;;;;;;;5071321;28;8985;-86
2024/01/17 02:31:36;;;;;;;;;27.00;22.33;;;;;;;;5072974;28;8806;-87
2024/01/17 02:34:04;;;;;;;;;25.00;21.00;;;;;;;;5076408;28;8887;-84
2024/01/17 02:36:32;;;;;;;;;24.67;22.33;;;;;;;;5076733;28;8869;-90
2024/01/17 02:39:04;;;;;;;;;24.67;23.00;;;;;;;;5073459;28;8850;-89
2024/01/17 02:41:32;;;;;;;;;25.67;25.67;;;;;;;;5076060;28;8894;-84
2024/01/17 02:43:59;;;;;;;;;32.00;32.00;;;;;;;;5077059;28;8939;-83
2024/01/17 02:46:29;;;;;;;;;26.67;26.00;;;;;;;;5074674;28;8877;-90
2024/01/17 02:48:56;;;;;;;;;37.00;30.33;;;;;;;;5070933;28;8863;-89
2024/01/17 02:51:26;;;;;;;;;31.00;29.33;;;;;;;;5070032;28;8866;-86
2024/01/17 02:53:54;;;;;;;;;21.67;21.67;;;;;;;;5061104;28;8849;-90
2024/01/17 02:56:22;;;;;;;;;23.67;23.67;;;;;;;;5072440;28;8870;-90
2024/01/17 02:58:50;;;;;;;;;27.33;23.33;;;;;;;;5070489;28;8936;-90
2024/01/17 03:01:17;;;;;;;;;16.67;14.00;;;;;;;;5067286;28;8791;-90
2024/01/17 03:03:45;;;;;;;;;30.00;23.00;;;;;;;;5069020;28;8909;-89
2024/01/17 03:06:12;;;;;;;;;21.33;21.33;;;;;;;;5067913;28;9679;-87
2024/01/17 03:08:39;;;;;;;;;27.67;27.67;;;;;;;;5068788;28;8851;-88
2024/01/17 03:11:06;;;;;;;;;21.00;20.00;;;;;;;;5069971;28;8878;-88
2024/01/17 03:13:35;;;;;;;;;24.67;22.00;;;;;;;;5070488;28;8855;-89
2024/01/17 03:16:02;;;;;;;;;22.67;21.33;;;;;;;;5069784;28;8851;-86
2024/01/17 03:18:31;;;;;;;;;21.67;21.00;;;;;;;;5073324;28;8932;-87
2024/01/17 03:20:59;;;;;;;;;28.67;24.33;;;;;;;;5072299;28;8954;-88
2024/01/17 03:23:26;;;;;;;;;25.33;24.33;;;;;;;;5069392;28;8843;-86
2024/01/17 03:25:53;;;;;;;;;22.67;19.67;;;;;;;;5069810;28;9706;-85
2024/01/17 03:28:24;;;;;;;;;29.00;26.67;;;;;;;;5069427;28;9720;-86
2024/01/17 03:30:52;;;;;;;;;25.67;25.67;;;;;;;;5069650;28;8851;-90
2024/01/17 03:33:20;;;;;;;;;22.33;20.00;;;;;;;;5069680;28;8885;-88
2024/01/17 03:35:47;;;;;;;;;26.00;26.00;;;;;;;;5068732;28;8877;-89
2024/01/17 03:38:18;;;;;;;;;25.67;25.67;;;;;;;;5068497;28;8888;-87
2024/01/17 03:40:45;;;;;;;;;28.67;28.67;;;;;;;;5067650;28;8890;-87
2024/01/17 03:43:13;;;;;;;;;24.33;22.67;;;;;;;;5069128;28;8862;-90
2024/01/17 03:45:45;;;;;;;;;24.67;24.67;;;;;;;;5069223;28;8874;-90
2024/01/17 03:48:13;;;;;;;;;31.67;26.33;;;;;;;;5070158;28;8944;-88
2024/01/17 03:50:41;;;;;;;;;24.67;22.33;;;;;;;;5069332;28;8940;-88
2024/01/17 03:53:08;;;;;;;;;29.00;25.00;;;;;;;;5061799;28;8847;-91
2024/01/17 03:55:35;;;;;;;;;26.33;23.00;;;;;;;;5071085;28;8916;-90
2024/01/17 03:58:03;;;;;;;;;30.00;25.67;;;;;;;;5068789;28;8962;-90
2024/01/17 04:00:30;;;;;;;;;31.67;31.67;;;;;;;;5066861;28;8770;-90
2024/01/17 04:02:57;;;;;;;;;19.00;17.67;;;;;;;;5070391;28;8854;-90
2024/01/17 04:05:26;;;;;;;;;33.67;30.00;;;;;;;;5065124;28;8887;-89
2024/01/17 04:07:53;;;;;;;;;38.00;33.00;;;;;;;;5068532;28;8885;-89
2024/01/17 04:10:21;;;;;;;;;32.33;25.33;;;;;;;;5070061;28;8868;-87
2024/01/17 04:12:48;;;;;;;;;28.67;24.00;;;;;;;;5073833;28;8847;-87
2024/01/17 04:15:16;;;;;;;;;31.00;27.33;;;;;;;;5075848;28;8863;-88
2024/01/17 04:17:43;;;;;;;;;26.33;19.00;;;;;;;;5085414;28;8857;-84
2024/01/17 04:20:11;;;;;;;;;28.00;26.33;;;;;;;;5075614;28;8952;-82
2024/01/17 04:22:40;;;;;;;;;32.33;29.33;;;;;;;;5079192;28;8863;-83
2024/01/17 04:25:08;;;;;;;;;29.00;25.33;;;;;;;;5073133;28;8858;-86
2024/01/17 04:27:35;;;;;;;;;30.00;28.00;;;;;;;;5079574;28;8854;-84
2024/01/17 04:30:03;;;;;;;;;30.67;26.00;;;;;;;;5080845;28;8835;-83
2024/01/17 04:32:33;;;;;;;;;26.33;24.67;;;;;;;;5074144;28;8878;-89
2024/01/17 04:35:00;;;;;;;;;30.67;23.67;;;;;;;;5064838;28;8904;-91
2024/01/17 04:37:28;;;;;;;;;26.33;26.33;;;;;;;;5069702;28;8855;-91
2024/01/17 04:39:56;;;;;;;;;23.33;21.00;;;;;;;;5072424;28;8859;-89
2024/01/17 04:42:24;;;;;;;;;23.33;22.33;;;;;;;;5069847;28;9629;-91
2024/01/17 04:44:51;;;;;;;;;20.67;18.67;;;;;;;;5064932;28;8972;-91
2024/01/17 04:47:19;;;;;;;;;36.00;28.33;;;;;;;;5063348;28;8866;-91
2024/01/17 04:49:47;;;;;;;;;30.33;23.33;;;;;;;;5072044;28;8893;-93
2024/01/17 04:52:17;;;;;;;;;24.00;23.00;;;;;;;;5072123;28;8892;-87
2024/01/17 04:54:45;;;;;;;;;25.00;22.67;;;;;;;;5071457;28;8843;-84
2024/01/17 04:57:13;;;;;;;;;32.67;26.33;;;;;;;;5080028;28;8865;-89
2024/01/17 04:59:41;;;;;;;;;37.33;30.00;;;;;;;;5074420;28;8932;-89
2024/01/17 05:02:08;;;;;;;;;27.33;27.00;;;;;;;;5074329;28;8799;-86
2024/01/17 05:04:35;;;;;;;;;32.00;28.67;;;;;;;;5074128;28;8874;-86
2024/01/17 05:07:03;;;;;;;;;27.00;21.33;;;;;;;;5075498;28;9614;-83
2024/01/17 05:09:33;;;;;;;;;33.00;29.33;;;;;;;;5074959;28;8847;-84
2024/01/17 05:12:00;;;;;;;;;27.33;25.67;;;;;;;;5071823;28;8863;-91
2024/01/17 05:14:29;;;;;;;;;35.00;31.00;;;;;;;;5071125;28;8887;-87
2024/01/17 05:16:57;;;;;;;;;33.00;29.00;;;;;;;;5070952;28;8858;-84
2024/01/17 05:19:24;;;;;;;;;25.67;25.67;;;;;;;;5071054;28;8884;-84
2024/01/17 05:21:51;;;;;;;;;32.33;27.67;;;;;;;;5071138;28;8863;-87
2024/01/17 05:24:18;;;;;;;;;34.33;30.00;;;;;;;;5071663;28;8982;-84
2024/01/17 05:26:46;;;;;;;;;27.67;27.67;;;;;;;;5057922;28;8838;-86
2024/01/17 05:29:13;;;;;;;;;32.67;32.67;;;;;;;;5059291;28;8873;-87
2024/01/17 05:31:42;;;;;;;;;27.33;26.33;;;;;;;;5056919;28;8884;-86
2024/01/17 05:34:09;;;;;;;;;29.33;28.33;;;;;;;;5059053;28;8873;-86
2024/01/17 05:36:37;;;;;;;;;35.00;33.33;;;;;;;;5070873;28;8861;-86
2024/01/17 05:39:05;;;;;;;;;30.00;29.33;;;;;;;;5071231;28;8885;-83
2024/01/17 05:41:32;;;;;;;;;38.00;32.00;;;;;;;;5058150;28;8882;-85
2024/01/17 05:43:59;;;;;;;;;31.33;31.33;;;;;;;;5070856;28;8863;-87
2024/01/17 05:46:27;;;;;;;;;36.33;33.00;;;;;;;;5069679;28;8847;-85
2024/01/17 05:48:55;;;;;;;;;34.67;31.00;;;;;;;;5069898;28;8886;-81
2024/01/17 05:51:24;;;;;;;;;45.00;38.00;;;;;;;;5057790;28;8989;-83
2024/01/17 05:53:51;;;;;;;;;37.00;34.00;;;;;;;;5057156;28;8891;-81
2024/01/17 05:56:18;;;;;;;;;39.67;34.67;;;;;;;;5071707;28;8885;-82
2024/01/17 05:58:45;;;;;;;;;43.67;39.33;;;;;;;;5070164;28;9618;-85
2024/01/17 06:01:13;;;;;;;;;38.00;35.33;;;;;;;;5073497;28;8783;-74
2024/01/17 06:03:40;;;;;;;;;48.67;39.00;;;;;;;;5074844;28;8867;-81
2024/01/17 06:06:09;;;;;;;;;43.33;37.00;;;;;;;;5076814;28;8878;-76
2024/01/17 06:08:36;;;;;;;;;56.67;41.00;;;;;;;;5073953;28;8838;-79
2024/01/17 06:11:04;;;;;;;;;60.33;49.00;;;;;;;;5075457;28;8896;-84
2024/01/17 06:13:31;;;;;;;;;46.67;39.67;;;;;;;;5069787;28;8867;-83
2024/01/17 06:15:58;;;;;;;;;38.00;38.00;;;;;;;;5076594;28;8846;-81
2024/01/17 06:18:25;;;;;;;;;44.33;39.67;;;;;;;;5068824;28;8869;-78
2024/01/17 06:20:53;;;;;;;;;55.67;44.33;;;;;;;;5070426;28;8847;-78
2024/01/17 06:23:22;;;;;;;;;50.00;42.00;;;;;;;;5067369;28;8847;-73
2024/01/17 06:25:49;;;;;;;;;43.67;41.33;;;;;;;;5068249;28;9738;-79
2024/01/17 06:28:18;;;;;;;;;54.00;42.67;;;;;;;;5069399;28;8881;-75
2024/01/17 06:30:45;;;;;;;;;49.67;43.33;;;;;;;;5068730;28;8919;-75
2024/01/17 06:33:14;;;;;;;;;49.33;44.00;;;;;;;;5068484;28;8893;-73
2024/01/17 06:35:41;;;;;;;;;42.67;39.33;;;;;;;;5068604;28;8884;-74
2024/01/17 06:38:08;;;;;;;;;40.67;37.33;;;;;;;;5068239;28;8871;-75
2024/01/17 06:40:37;;;;;;;;;48.67;43.00;;;;;;;;5067782;28;8892;-75
2024/01/17 06:43:04;;;;;;;;;50.00;40.00;;;;;;;;5066612;28;8881;-76
2024/01/17 06:45:31;;;;;;;;;45.00;42.00;;;;;;;;5069036;28;8850;-76
2024/01/17 06:48:01;;;;;;;;;41.00;38.67;;;;;;;;5066540;28;8879;-76
2024/01/17 06:50:31;;;;;;;;;43.67;38.00;;;;;;;;5068394;28;8925;-76
2024/01/17 06:52:58;;;;;;;;;43.67;35.33;;;;;;;;5062781;28;8869;-75
2024/01/17 06:55:26;;;;;;;;;45.00;41.00;;;;;;;;5061372;28;9634;-74
2024/01/17 06:57:54;;;;;;;;;42.00;40.33;;;;;;;;5068468;28;8920;-74
2024/01/17 07:00:24;;;;;;;;;54.33;41.00;;;;;;;;5067354;28;8842;-75
2024/01/17 07:02:51;;;;;;;;;43.00;41.00;;;;;;;;5068439;28;8855;-76
2024/01/17 07:05:19;;;;;;;;;37.00;37.00;;;;;;;;5068251;28;8877;-79
2024/01/17 07:07:46;;;;;;;;;40.00;32.33;;;;;;;;5068237;28;8882;-76
2024/01/17 07:10:14;;;;;;;;;46.00;40.33;;;;;;;;5068268;28;8862;-76
2024/01/17 07:12:41;;;;;;;;;38.33;37.67;;;;;;;;5067160;28;8871;-76
2024/01/17 07:15:11;;;;;;;;;42.33;36.33;;;;;;;;5067704;28;8859;-76
2024/01/17 07:17:38;;;;;;;;;56.67;42.67;;;;;;;;5068152;28;8843;-75
2024/01/17 07:20:10;;;;;;;;;47.67;35.00;;;;;;;;5068385;28;8842;-76
2024/01/17 07:22:41;;;;;;;;;37.67;37.67;;;;;;;;5068368;28;8867;-77
2024/01/17 07:25:12;;;;;;;;;43.00;39.00;;;;;;;;5068107;28;8862;-77
2024/01/17 07:27:41;;;;;;;;;42.67;38.33;;;;;;;;5067956;28;8878;-77
2024/01/17 07:30:11;;;;;;;;;43.33;39.00;;;;;;;;5068680;28;8881;-78
2024/01/17 07:32:39;;;;;;;;;46.33;40.67;;;;;;;;5069382;28;8847;-80
2024/01/17 07:35:06;;;;;;;;;49.33;41.00;;;;;;;;5058307;28;8847;-74
2024/01/17 07:37:36;;;;;;;;;44.33;40.33;;;;;;;;5068052;28;8985;-74
2024/01/17 07:40:10;;;;;;;;;44.00;40.33;;;;;;;;5057147;28;8859;-75
2024/01/17 07:42:37;;;;;;;;;44.00;41.00;;;;;;;;5068045;28;8839;-79
2024/01/17 07:45:06;;;;;;;;;39.00;33.67;;;;;;;;5068570;28;8961;-76
2024/01/17 07:47:34;;;;;;;;;49.33;42.67;;;;;;;;5069433;28;8842;-76
2024/01/17 07:50:02;;;;;;;;;43.00;41.67;;;;;;;;5073411;28;9697;-78
2024/01/17 07:52:32;;;;;;;;;33.67;32.33;;;;;;;;5070378;28;8865;-78
2024/01/17 07:54:59;;;;;;;;;43.33;39.33;;;;;;;;5065280;28;9637;-81
2024/01/17 07:57:26;;;;;;;;;38.33;38.00;;;;;;;;5074096;28;8851;-82
2024/01/17 07:59:53;;;;;;;;;46.00;42.00;;;;;;;;5074098;28;8866;-76
2024/01/17 08:02:20;;;;;;;;;45.00;39.67;;;;;;;;5072388;28;8823;-75
2024/01/17 08:04:52;;;;;;;;;38.33;37.00;;;;;;;;5073417;28;9218;-76
2024/01/17 08:07:24;;;;;;;;;42.67;38.00;;;;;;;;5064728;28;8854;-74
2024/01/17 08:09:51;;;;;;;;;37.67;37.67;;;;;;;;5067628;28;8835;-73
2024/01/17 08:12:19;;;;;;;;;40.00;39.00;;;;;;;;5061976;28;8866;-73
2024/01/17 08:14:46;;;;;;;;;31.33;28.67;;;;;;;;5062132;28;9731;-75
2024/01/17 08:17:16;;;;;;;;;30.33;29.33;;;;;;;;5068229;28;8985;-75
2024/01/17 08:19:43;;;;;;;;;32.67;32.67;;;;;;;;5067547;28;8885;-74
2024/01/17 08:22:14;;;;;;;;;28.00;27.00;;;;;;;;5061890;28;8939;-74
2024/01/17 08:24:42;;;;;;;;;34.33;30.00;;;;;;;;5065766;28;8847;-74
2024/01/17 08:27:09;;;;;;;;;38.67;36.33;;;;;;;;5071726;28;8847;-74
2024/01/17 08:29:37;;;;;;;;;35.00;32.00;;;;;;;;5071662;28;8839;-75
2024/01/17 08:32:06;;;;;;;;;32.33;29.67;;;;;;;;5071802;28;8917;-76
2024/01/17 08:34:33;;;;;;;;;39.67;35.00;;;;;;;;5072142;28;8942;-74
2024/01/17 08:37:01;;;;;;;;;64.67;47.00;;;;;;;;5071851;28;8862;-78
2024/01/17 08:39:34;;;;;;;;;52.33;45.33;;;;;;;;5066473;28;8859;-77
2024/01/17 08:42:06;;;;;;;;;38.33;38.33;;;;;;;;5062138;28;8876;-77
2024/01/17 08:44:34;;;;;;;;;44.67;40.33;;;;;;;;5071454;28;8854;-73
2024/01/17 08:47:02;;;;;;;;;45.67;39.67;;;;;;;;5071252;28;8857;-76
2024/01/17 08:49:31;;;;;;;;;37.33;33.33;;;;;;;;5065429;28;8847;-73
2024/01/17 08:51:59;;;;;;;;;31.00;27.67;;;;;;;;5065835;28;8860;-76
2024/01/17 08:54:27;;;;;;;;;28.67;24.67;;;;;;;;5069893;28;8926;-74
2024/01/17 08:56:56;;;;;;;;;23.67;23.67;;;;;;;;5070026;28;8935;-72
2024/01/17 08:59:23;;;;;;;;;32.33;29.67;;;;;;;;5070321;28;8847;-74
2024/01/17 09:01:56;;;;;;;;;29.33;28.00;;;;;;;;5069707;28;8931;-74
2024/01/17 09:04:25;;;;;;;;;26.00;21.00;;;;;;;;5059477;28;8859;-75
2024/01/17 09:06:52;;;;;;;;;38.33;36.00;;;;;;;;5070061;28;8949;-74
2024/01/17 09:09:21;;;;;;;;;26.67;24.33;;;;;;;;5071001;28;8985;-73
2024/01/17 09:11:48;;;;;;;;;30.00;25.67;;;;;;;;5070071;28;8874;-74
2024/01/17 09:14:21;;;;;;;;;33.67;29.33;;;;;;;;5060635;28;8902;-74
2024/01/17 09:16:49;;;;;;;;;25.33;19.67;;;;;;;;5070349;28;8909;-73
2024/01/17 09:19:16;;;;;;;;;32.00;28.00;;;;;;;;5070454;28;8870;-74
2024/01/17 09:21:44;;;;;;;;;29.67;25.33;;;;;;;;5069647;28;8823;-75
2024/01/17 09:24:12;;;;;;;;;30.67;23.33;;;;;;;;5070922;28;11583;-74
2024/01/17 09:26:39;;;;;;;;;16.33;14.67;;;;;;;;5066338;28;11585;-75
2024/01/17 09:29:09;;;;;;;;;21.00;21.00;;;;;;;;5070240;28;11534;-77
2024/01/17 09:31:39;;;;;;;;;20.67;20.33;;;;;;;;5067468;28;11516;-77
2024/01/17 09:34:09;;;;;;;;;29.67;24.67;;;;;;;;5067283;28;11646;-77
2024/01/17 09:36:42;;;;;;;;;22.67;21.00;;;;;;;;5067841;28;11579;-76
2024/01/17 09:39:09;;;;;;;;;30.33;27.33;;;;;;;;5071716;28;11595;-77
2024/01/17 09:41:39;;;;;;;;;23.67;23.33;;;;;;;;5071020;28;8939;-77
2024/01/17 09:44:09;;;;;;;;;36.33;26.00;;;;;;;;5074309;28;8940;-74
2024/01/17 09:46:41;;;;;;;;;22.00;21.00;;;;;;;;5075953;28;11593;-76
2024/01/17 09:49:08;;;;;;;;;27.00;27.00;;;;;;;;5075650;28;11569;-75
2024/01/17 09:51:37;;;;;;;;;23.00;23.00;;;;;;;;5075658;28;8912;-76
2024/01/17 09:54:05;;;;;;;;;25.33;22.00;;;;;;;;5062864;28;11548;-75
2024/01/17 09:56:33;;;;;;;;;23.00;20.33;;;;;;;;5075584;28;11659;-74
2024/01/17 09:59:08;;;;;;;;;23.67;23.00;;;;;;;;5070524;28;11647;-77
2024/01/17 10:01:38;;;;;;;;;28.00;28.00;;;;;;;;5070485;28;11555;-73
2024/01/17 10:04:08;;;;;;;;;26.00;21.33;;;;;;;;5069411;28;11699;-75
2024/01/17 10:06:36;;;;;;;;;32.33;32.33;;;;;;;;5071459;28;11588;-73
2024/01/17 10:09:03;;;;;;;;;16.00;16.00;;;;;;;;5070375;28;12333;-75
2024/01/17 10:11:30;;;;;;;;;25.00;25.00;;;;;;;;5069880;28;11580;-75
2024/01/17 10:13:58;;;;;;;;;32.00;25.67;;;;;;;;5070869;28;11723;-74
2024/01/17 10:16:27;;;;;;;;;16.00;16.00;;;;;;;;5071276;28;11568;-73
2024/01/17 10:18:56;;;;;;;;;26.33;22.67;;;;;;;;5069361;28;11567;-77
2024/01/17 10:21:26;;;;;;;;;23.00;23.00;;;;;;;;5067862;28;11705;-75
2024/01/17 10:23:53;;;;;;;;;21.67;21.67;;;;;;;;5070190;28;11559;-75
2024/01/17 10:26:22;;;;;;;;;31.67;28.00;;;;;;;;5069936;28;11556;-75
2024/01/17 10:28:50;;;;;;;;;28.33;21.33;;;;;;;;5071154;28;11576;-75
2024/01/17 10:31:21;;;;;;;;;28.67;27.33;;;;;;;;5071644;28;11570;-76
2024/01/17 10:33:49;;;;;;;;;23.33;23.33;;;;;;;;5055651;28;11615;-77
2024/01/17 10:36:18;;;;;;;;;26.00;24.33;;;;;;;;5067057;28;11604;-80
2024/01/17 10:38:46;;;;;;;;;26.00;26.00;;;;;;;;5069069;28;11669;-77
2024/01/17 10:41:15;;;;;;;;;26.33;22.67;;;;;;;;5068113;28;12443;-77
2024/01/17 10:43:54;;;;;;;;;32.33;26.33;;;;;;;;5058048;28;11596;-75
2024/01/17 10:46:23;;;;;;;;;21.33;21.33;;;;;;;;5066530;28;11558;-75
2024/01/17 10:48:51;;;;;;;;;24.00;22.33;;;;;;;;5069352;28;11606;-76
2024/01/17 10:51:22;;;;;;;;;27.67;27.67;;;;;;;;5069890;28;11535;-76
2024/01/17 10:53:50;;;;;;;;;26.67;21.00;;;;;;;;5057782;28;11577;-76
2024/01/17 10:56:19;;;;;;;;;30.33;26.67;;;;;;;;5071087;28;9680;-78
2024/01/17 10:58:54;;;;;;;;;29.00;27.33;;;;;;;;5070001;28;11617;-76
2024/01/17 11:01:30;;;;;;;;;16.33;16.33;;;;;;;;5067838;28;8842;-76
2024/01/17 11:04:04;;;;;;;;;17.67;15.67;;;;;;;;5068457;28;11555;-75
2024/01/17 11:06:33;;;;;;;;;18.67;18.67;;;;;;;;5068717;28;11708;-76
2024/01/17 11:09:04;;;;;;;;;27.67;21.00;;;;;;;;5068851;28;11561;-76
2024/01/17 11:11:31;;;;;;;;;17.00;17.00;;;;;;;;5067108;28;11548;-77
2024/01/17 11:13:59;;;;;;;;;20.00;17.00;;;;;;;;5068645;28;11569;-76
2024/01/17 11:16:30;;;;;;;;;28.00;25.67;;;;;;;;5069633;28;11689;-79
2024/01/17 11:19:00;;;;;;;;;16.75;15.00;;;;;;;;5068668;28;9673;-79
2024/01/17 11:21:31;;;;;;;;;27.67;27.67;;;;;;;;5069210;28;11558;-78
2024/01/17 11:24:08;;;;;;;;;22.33;22.33;;;;;;;;5068951;28;8873;-78
2024/01/17 11:26:38;;;;;;;;;26.67;19.00;;;;;;;;5075437;28;11554;-78
2024/01/17 11:29:16;;;;;;;;;27.00;23.33;;;;;;;;5076892;28;11658;-77
2024/01/17 11:31:56;;;;;;;;;20.67;20.67;;;;;;;;5069461;28;11500;-79
2024/01/17 11:34:24;;;;;;;;;12.50;12.50;;;;;;;;5070976;28;11678;-77
2024/01/17 11:36:52;;;;;;;;;24.33;18.00;;;;;;;;5072341;28;11787;-82
2024/01/17 11:39:22;;;;;;;;;19.00;19.00;;;;;;;;5072971;28;11647;-80
2024/01/17 11:41:51;;;;;;;;;30.00;28.00;;;;;;;;5073817;28;11587;-77
2024/01/17 11:44:19;;;;;;;;;44.00;35.33;;;;;;;;5071080;28;11667;-79
2024/01/17 11:46:53;;;;;;;;;22.00;19.33;;;;;;;;5072863;28;11630;-75
2024/01/17 11:49:39;;;;;;;;;29.00;22.00;;;;;;;;5067704;28;11554;-74
2024/01/17 11:52:12;;;;;;;;;15.25;15.25;;;;;;;;5067905;28;12309;-74
2024/01/17 11:54:41;;;;;;;;;13.67;13.67;;;;;;;;5056068;28;11591;-76
2024/01/17 11:57:11;;;;;;;;;16.00;16.00;;;;;;;;5067345;28;12331;-75
2024/01/17 11:59:39;;;;;;;;;17.75;17.75;;;;;;;;5068067;28;11678;-74
2024/01/17 12:02:06;;;;;;;;;16.25;16.25;;;;;;;;5066796;28;11532;-77
2024/01/17 12:04:33;;;;;;;;;20.00;14.75;;;;;;;;5067838;28;11720;-75
2024/01/17 12:07:00;;;;;;;;;19.00;14.25;;;;;;;;5067047;28;11634;-76
2024/01/17 12:09:28;;;;;;;;;16.00;14.75;;;;;;;;5067786;28;11556;-76
2024/01/17 12:11:59;;;;;;;;;17.75;17.00;;;;;;;;5065509;28;11677;-78
2024/01/17 12:14:29;;;;;;;;;16.00;16.00;;;;;;;;5067914;28;12328;-74
2024/01/17 12:16:56;;;;;;;;;9.75;9.75;;;;;;;;5068467;28;11548;-80
2024/01/17 12:19:23;;;;;;;;;24.00;20.00;;;;;;;;5069664;28;11552;-77
2024/01/17 12:21:56;;;;;;;;;51.00;39.00;;;;;;;;5070564;28;11579;-78
2024/01/17 12:24:24;;;;;;;;;29.00;24.33;;;;;;;;5072541;28;8862;-74
2024/01/17 12:26:52;;;;;;;;;28.00;24.00;;;;;;;;5064822;28;11588;-77
2024/01/17 12:29:22;;;;;;;;;35.67;32.00;;;;;;;;5067227;28;11581;-77
2024/01/17 12:31:49;;;;;;;;;19.75;17.75;;;;;;;;5066796;28;11668;-77
2024/01/17 12:34:16;;;;;;;;;17.25;17.25;;;;;;;;5067859;28;11586;-78
2024/01/17 12:36:43;;;;;;;;;22.00;19.00;;;;;;;;5066779;28;11564;-77
2024/01/17 12:39:12;;;;;;;;;21.67;21.67;;;;;;;;5062900;28;11554;-85
2024/01/17 12:41:42;;;;;;;;;29.67;26.67;;;;;;;;5067023;28;11560;-74
2024/01/17 12:44:10;;;;;;;;;23.33;21.00;;;;;;;;5063964;28;11558;-75
2024/01/17 12:46:42;;;;;;;;;26.67;24.33;;;;;;;;5059490;28;8877;-74
2024/01/17 12:49:15;;;;;;;;;28.00;21.67;;;;;;;;5059516;28;11716;-75
2024/01/17 12:51:42;;;;;;;;;25.33;18.00;;;;;;;;5064917;28;11630;-76
2024/01/17 12:54:14;;;;;;;;;25.67;23.00;;;;;;;;5051893;28;11574;-73
2024/01/17 12:56:44;;;;;;;;;40.00;35.67;;;;;;;;5067723;28;11585;-80
2024/01/17 12:59:12;;;;;;;;;52.33;45.33;;;;;;;;5066624;28;9752;-75
2024/01/17 13:01:44;;;;;;;;;19.67;17.67;;;;;;;;5068113;28;8800;-75
2024/01/17 13:04:12;;;;;;;;;17.00;17.00;;;;;;;;5068427;28;11622;-77
2024/01/17 13:06:46;;;;;;;;;21.67;20.00;;;;;;;;5067112;28;11550;-74
2024/01/17 13:09:17;;;;;;;;;22.00;22.00;;;;;;;;5059877;28;11558;-76
2024/01/17 13:11:49;;;;;;;;;27.67;22.33;;;;;;;;5071548;28;11662;-75
2024/01/17 13:14:20;;;;;;;;;17.00;14.00;;;;;;;;5078283;28;11551;-72
2024/01/17 13:16:49;;;;;;;;;16.50;14.00;;;;;;;;5076052;28;11671;-79
2024/01/17 13:19:16;;;;;;;;;13.00;12.00;;;;;;;;5075452;28;11547;-83
2024/01/17 13:21:44;;;;;;;;;19.50;14.00;;;;;;;;5076826;28;11577;-77
2024/01/17 13:24:12;;;;;;;;;17.25;17.00;;;;;;;;5078436;28;11573;-74
2024/01/17 13:26:40;;;;;;;;;38.33;33.00;;;;;;;;5076216;28;11550;-77
2024/01/17 13:29:10;;;;;;;;;19.50;16.75;;;;;;;;5077764;28;8865;-82
2024/01/17 13:31:52;;;;;;;;;24.33;24.33;;;;;;;;5072086;28;11506;-76
2024/01/17 13:34:19;;;;;;;;;51.67;44.33;;;;;;;;5069734;28;11554;-80
2024/01/17 13:36:49;;;;;;;;;37.00;33.00;;;;;;;;5059228;28;8865;-78
2024/01/17 13:39:16;;;;;;;;;16.25;16.25;;;;;;;;5066328;28;11686;-74
2024/01/17 13:41:44;;;;;;;;;22.25;21.00;;;;;;;;5054748;28;11586;-75
2024/01/17 13:44:23;;;;;;;;;26.75;23.00;;;;;;;;5053487;28;11682;-75
2024/01/17 13:46:52;;;;;;;;;10.25;10.25;;;;;;;;5021028;28;11615;-75
2024/01/17 13:49:24;;;;;;;;;13.00;13.00;;;;;;;;5052864;28;11571;-76
2024/01/17 13:51:53;;;;;;;;;14.00;12.25;;;;;;;;5061282;28;11596;-79
2024/01/17 13:54:21;;;;;;;;;9.25;9.25;;;;;;;;5066754;28;11543;-75
2024/01/17 13:56:48;;;;;;;;;15.25;10.00;;;;;;;;5069769;28;11572;-76
2024/01/17 13:59:16;;;;;;;;;20.75;20.75;;;;;;;;5069197;28;11597;-75
2024/01/17 14:01:43;;;;;;;;;16.50;15.50;;;;;;;;5069695;28;11550;-75
2024/01/17 14:04:14;;;;;;;;;34.50;29.75;;;;;;;;5066703;28;11553;-76
2024/01/17 14:06:41;;;;;;;;;20.75;20.75;;;;;;;;5065755;28;11568;-77
2024/01/17 14:09:09;;;;;;;;;22.50;16.25;;;;;;;;5068992;28;11699;-78
2024/01/17 14:11:40;;;;;;;;;25.00;25.00;;;;;;;;5070730;28;11540;-78
2024/01/17 14:14:12;;;;;;;;;17.25;13.25;;;;;;;;5069249;28;11592;-78
2024/01/17 14:16:41;;;;;;;;;19.25;19.25;;;;;;;;5066344;28;11537;-76
2024/01/17 14:19:09;;;;;;;;;17.25;17.25;;;;;;;;5070176;28;11553;-76
2024/01/17 14:21:39;;;;;;;;;13.75;12.50;;;;;;;;5069010;28;11548;-75
2024/01/17 14:24:06;;;;;;;;;16.50;16.50;;;;;;;;5069391;28;11572;-77
2024/01/17 14:26:33;;;;;;;;;22.50;21.00;;;;;;;;5062110;28;11564;-76
2024/01/17 14:29:01;;;;;;;;;20.50;20.50;;;;;;;;5069522;28;12325;-74
2024/01/17 14:31:28;;;;;;;;;26.50;24.75;;;;;;;;5066881;28;11646;-78
2024/01/17 14:33:56;;;;;;;;;17.25;17.25;;;;;;;;5069597;28;11683;-78